createdAt,value
2019-04-14T00:01:21.652Z,43.52
2019-04-14T00:04:11.528Z,40.50
2019-04-14T00:06:44.035Z,45.08
2019-04-14T00:11:50.504Z,42.08
2019-04-14T00:14:20.646Z,40.75
2019-04-14T00:16:50.926Z,39.78
2019-04-14T00:19:20.138Z,37.98
2019-04-14T00:21:50.075Z,37.42
2019-04-14T00:24:20.530Z,36.73
2019-04-14T00:26:50.768Z,37.08
2019-04-14T00:29:21.744Z,35.20
2019-04-14T00:31:53.443Z,33.35
2019-04-14T00:34:42.598Z,35.83
2019-04-14T00:37:18.897Z,36.63
2019-04-14T00:39:49.746Z,33.98
2019-04-14T00:42:38.816Z,34.92
2019-04-14T00:45:11.207Z,36.40
2019-04-14T00:47:51.766Z,36.85
2019-04-14T00:50:14.696Z,37.08
2019-04-14T00:52:44.417Z,38.58
2019-04-14T00:55:14.514Z,37.83
2019-04-14T00:57:44.127Z,36.98
2019-04-14T01:00:17.599Z,38.02
2019-04-14T01:02:46.975Z,42.45
2019-04-14T01:05:17.425Z,41.33
2019-04-14T01:07:48.056Z,42.08
2019-04-14T01:10:17.162Z,42.27
2019-04-14T01:12:47.397Z,43.45
2019-04-14T01:15:17.890Z,42.93
2019-04-14T01:17:47.054Z,40.83
2019-04-14T01:20:18.928Z,38.90
2019-04-14T01:22:48.880Z,38.98
2019-04-14T01:25:19.269Z,42.95
2019-04-14T01:27:49.611Z,41.73
2019-04-14T01:30:19.786Z,40.12
2019-04-14T01:32:50.111Z,41.53
2019-04-14T01:35:20.290Z,44.48
2019-04-14T01:37:51.289Z,44.77
2019-04-14T01:40:22.744Z,43.42
2019-04-14T01:42:52.761Z,45.15
2019-04-14T01:45:25.321Z,42.60
2019-04-14T01:47:57.505Z,44.88
2019-04-14T01:50:29.814Z,43.05
2019-04-14T01:53:01.111Z,41.40
2019-04-14T01:55:35.492Z,44.42
2019-04-14T01:58:07.865Z,44.90
2019-04-14T02:00:42.398Z,42.95
2019-04-14T02:03:14.863Z,44.40
2019-04-14T02:05:45.230Z,47.10
2019-04-14T02:08:15.507Z,45.03
2019-04-14T02:10:45.632Z,45.67
2019-04-14T02:13:15.802Z,37.83
2019-04-14T02:15:46.478Z,46.28
2019-04-14T02:18:16.375Z,47.38
2019-04-14T02:20:47.160Z,46.73
2019-04-14T02:23:17.100Z,47.50
2019-04-14T02:25:47.200Z,45.05
2019-04-14T02:28:17.646Z,48.33
2019-04-14T02:30:57.202Z,45.92
2019-04-14T02:33:44.623Z,44.88
2019-04-14T02:36:23.875Z,48.00
2019-04-14T02:41:18.344Z,46.10
2019-04-14T02:43:52.375Z,45.40
2019-04-14T02:46:25.653Z,46.95
2019-04-14T02:48:58.323Z,46.73
2019-04-14T02:51:29.607Z,43.60
2019-04-14T02:53:57.672Z,38.40
2019-04-14T02:58:58.403Z,42.38
2019-04-14T03:01:33.452Z,43.90
2019-04-14T03:03:56.575Z,31.77
2019-04-14T03:06:33.588Z,43.33
2019-04-14T03:11:36.172Z,48.00
2019-04-14T03:14:10.916Z,39.67
2019-04-14T03:17:05.805Z,41.68
2019-04-14T03:19:59.508Z,41.53
2019-04-14T03:22:38.938Z,43.65
2019-04-14T03:25:09.392Z,39.33
2019-04-14T03:27:54.857Z,42.17
2019-04-14T03:31:03.992Z,43.42
2019-04-14T03:38:20.579Z,44.18
2019-04-14T03:43:11.597Z,45.52
2019-04-14T03:53:23.317Z,41.77
2019-04-14T03:55:54.422Z,43.20
2019-04-14T03:58:20.533Z,42.48
2019-04-14T04:00:51.340Z,43.42
2019-04-14T04:03:22.346Z,36.75
2019-04-14T04:05:52.616Z,38.23
2019-04-14T04:08:24.883Z,40.33
2019-04-14T04:10:55.885Z,40.70
2019-04-14T04:13:30.214Z,41.70
2019-04-14T04:16:15.808Z,41.40
2019-04-14T04:18:56.161Z,42.67
2019-04-14T04:21:35.608Z,42.65
2019-04-14T04:24:11.418Z,39.25
2019-04-14T04:29:24.475Z,41.13
2019-04-14T04:31:56.866Z,40.17
2019-04-14T04:37:11.271Z,39.30
2019-04-14T04:39:43.189Z,38.80
2019-04-14T04:42:15.390Z,38.78
2019-04-14T04:44:46.409Z,38.60
2019-04-14T04:47:16.655Z,38.25
2019-04-14T04:49:47.124Z,36.33
2019-04-14T04:52:17.296Z,37.85
2019-04-14T04:54:51.712Z,35.88
2019-04-14T04:57:22.098Z,37.40
2019-04-14T04:59:56.125Z,36.73
2019-04-14T05:02:29.329Z,34.55
2019-04-14T05:04:59.132Z,34.45
2019-04-14T05:07:31.610Z,34.35
2019-04-14T05:10:06.669Z,32.70
2019-04-14T05:12:41.307Z,33.33
2019-04-14T05:15:16.799Z,33.20
2019-04-14T05:17:47.804Z,32.73
2019-04-14T05:20:18.233Z,29.45
2019-04-14T05:22:48.686Z,31.17
2019-04-14T05:25:18.904Z,33.45
2019-04-14T05:27:49.794Z,31.80
2019-04-14T05:30:21.927Z,30.82
2019-04-14T05:32:56.622Z,33.05
2019-04-14T05:35:27.377Z,30.90
2019-04-14T05:37:57.793Z,31.15
2019-04-14T05:40:30.004Z,25.45
2019-04-14T05:43:00.153Z,29.05
2019-04-14T05:45:33.474Z,28.20
2019-04-14T05:48:05.287Z,29.57
2019-04-14T05:50:36.215Z,24.67
2019-04-14T05:53:08.945Z,25.25
2019-04-14T05:55:38.041Z,26.87
2019-04-14T05:58:08.466Z,24.75
2019-04-14T06:00:42.128Z,25.60
2019-04-14T06:03:12.987Z,25.20
2019-04-14T06:05:46.122Z,23.10
2019-04-14T06:08:18.419Z,24.07
2019-04-14T06:10:48.229Z,23.45
2019-04-14T06:13:22.063Z,24.98
2019-04-14T06:15:55.434Z,26.23
2019-04-14T06:18:27.823Z,24.72
2019-04-14T06:20:58.799Z,23.92
2019-04-14T06:23:27.910Z,23.60
2019-04-14T06:25:58.663Z,23.18
2019-04-14T06:28:27.770Z,22.67
2019-04-14T06:31:16.423Z,21.60
2019-04-14T06:33:47.424Z,22.52
2019-04-14T06:36:33.174Z,21.02
2019-04-14T06:39:09.826Z,21.17
2019-04-14T06:41:40.525Z,22.95
2019-04-14T06:44:10.215Z,20.60
2019-04-14T06:46:39.986Z,21.50
2019-04-14T06:49:09.151Z,22.70
2019-04-14T06:51:41.341Z,20.20
2019-04-14T06:54:11.174Z,20.23
2019-04-14T06:56:41.218Z,20.40
2019-04-14T06:59:11.171Z,20.40
2019-04-14T07:01:42.901Z,20.32
2019-04-14T07:04:13.686Z,21.07
2019-04-14T07:06:44.275Z,19.42
2019-04-14T07:09:16.089Z,19.42
2019-04-14T07:11:46.823Z,19.60
2019-04-14T07:14:17.811Z,16.50
2019-04-14T07:16:47.111Z,19.85
2019-04-14T07:19:16.489Z,20.08
2019-04-14T07:21:45.661Z,19.15
2019-04-14T07:24:14.757Z,17.30
2019-04-14T07:26:43.884Z,19.55
2019-04-14T07:29:14.781Z,17.23
2019-04-14T07:31:49.761Z,18.30
2019-04-14T07:34:32.507Z,20.15
2019-04-14T07:37:07.481Z,17.52
2019-04-14T07:39:39.262Z,18.52
2019-04-14T07:42:19.984Z,20.05
2019-04-14T07:45:04.959Z,18.60
2019-04-14T07:47:53.030Z,18.45
2019-04-14T07:50:31.191Z,18.12
2019-04-14T07:53:21.999Z,17.42
2019-04-14T07:56:14.995Z,17.77
2019-04-14T07:58:50.774Z,17.52
2019-04-14T08:01:28.887Z,16.95
2019-04-14T08:04:08.831Z,16.40
2019-04-14T08:06:42.262Z,16.65
2019-04-14T08:09:11.623Z,16.65
2019-04-14T08:11:46.544Z,16.95
2019-04-14T08:14:17.267Z,17.42
2019-04-14T08:17:00.299Z,17.42
2019-04-14T08:19:34.405Z,15.28
2019-04-14T08:22:08.329Z,17.32
2019-04-14T08:24:37.433Z,17.60
2019-04-14T08:27:07.282Z,16.97
2019-04-14T08:29:38.452Z,16.02
2019-04-14T08:32:13.167Z,16.30
2019-04-14T08:34:45.601Z,15.68
2019-04-14T08:37:16.028Z,16.97
2019-04-14T08:39:45.401Z,16.17
2019-04-14T08:42:21.242Z,15.72
2019-04-14T08:44:52.887Z,15.63
2019-04-14T08:47:26.870Z,16.10
2019-04-14T08:50:01.593Z,16.62
2019-04-14T08:52:43.480Z,16.67
2019-04-14T08:55:14.282Z,16.55
2019-04-14T08:57:57.614Z,14.23
2019-04-14T09:03:32.871Z,14.95
2019-04-14T09:06:12.806Z,13.10
2019-04-14T09:08:50.051Z,13.65
2019-04-14T09:11:31.429Z,13.32
2019-04-14T09:14:03.686Z,15.05
2019-04-14T09:16:35.252Z,11.88
2019-04-14T09:19:07.771Z,13.25
2019-04-14T09:21:37.006Z,10.95
2019-04-14T09:24:09.784Z,14.18
2019-04-14T09:26:38.906Z,14.23
2019-04-14T09:29:09.662Z,14.25
2019-04-14T09:31:39.757Z,14.25
2019-04-14T09:34:11.730Z,14.85
2019-04-14T09:36:42.908Z,10.65
2019-04-14T09:39:12.277Z,12.63
2019-04-14T09:41:41.941Z,12.58
2019-04-14T09:44:12.758Z,13.22
2019-04-14T09:46:42.941Z,14.80
2019-04-14T09:49:15.373Z,14.07
2019-04-14T09:51:47.462Z,14.80
2019-04-14T09:54:16.582Z,15.35
2019-04-14T09:56:50.336Z,13.03
2019-04-14T09:59:20.362Z,12.70
2019-04-14T10:01:53.656Z,15.65
2019-04-14T10:04:24.301Z,14.60
2019-04-14T10:06:58.673Z,14.20
2019-04-14T10:09:29.226Z,15.40
2019-04-14T10:12:01.627Z,9.95
2019-04-14T10:14:36.954Z,14.63
2019-04-14T10:17:06.046Z,11.97
2019-04-14T10:19:37.465Z,11.15
2019-04-14T10:22:08.942Z,12.07
2019-04-14T10:24:38.061Z,12.23
2019-04-14T10:27:09.729Z,12.10
2019-04-14T10:29:39.305Z,13.88
2019-04-14T10:32:08.414Z,14.05
2019-04-14T10:34:39.146Z,12.82
2019-04-14T10:37:08.992Z,11.50
2019-04-14T10:39:38.352Z,13.65
2019-04-14T10:42:07.463Z,12.35
2019-04-14T10:44:39.187Z,12.23
2019-04-14T10:47:09.917Z,12.60
2019-04-14T10:49:39.012Z,13.55
2019-04-14T10:52:11.841Z,14.40
2019-04-14T10:54:41.635Z,10.75
2019-04-14T10:57:14.074Z,12.35
2019-04-14T11:00:02.680Z,11.78
2019-04-14T11:02:34.070Z,11.65
2019-04-14T11:05:07.163Z,11.38
2019-04-14T11:07:36.522Z,12.07
2019-04-14T11:10:07.320Z,10.53
2019-04-14T11:12:37.015Z,11.63
2019-04-14T11:15:08.322Z,11.68
2019-04-14T11:17:37.427Z,12.93
2019-04-14T11:20:09.538Z,12.73
2019-04-14T11:22:41.293Z,12.13
2019-04-14T11:25:11.378Z,12.63
2019-04-14T11:27:45.689Z,10.70
2019-04-14T11:30:17.761Z,10.40
2019-04-14T11:32:56.205Z,9.78
2019-04-14T11:35:29.652Z,8.63
2019-04-14T11:38:02.108Z,10.85
2019-04-14T11:40:45.494Z,9.85
2019-04-14T11:43:16.237Z,14.60
2019-04-14T11:45:46.134Z,11.97
2019-04-14T11:48:16.358Z,12.80
2019-04-14T11:50:47.493Z,11.28
2019-04-14T11:53:17.615Z,11.83
2019-04-14T11:55:50.414Z,11.90
2019-04-14T11:58:21.343Z,11.60
2019-04-14T12:01:10.148Z,12.18
2019-04-14T12:03:59.675Z,10.35
2019-04-14T12:06:42.977Z,13.45
2019-04-14T12:12:14.791Z,11.30
2019-04-14T12:14:44.501Z,13.40
2019-04-14T12:17:13.713Z,13.68
2019-04-14T12:19:45.665Z,13.88
2019-04-14T12:22:16.405Z,8.65
2019-04-14T12:24:59.125Z,10.18
2019-04-14T12:27:32.329Z,10.65
2019-04-14T12:30:03.447Z,13.40
2019-04-14T12:32:33.891Z,15.10
2019-04-14T12:35:03.238Z,10.20
2019-04-14T12:37:38.337Z,10.82
2019-04-14T12:40:08.591Z,7.80
2019-04-14T12:42:57.448Z,12.47
2019-04-14T12:45:44.961Z,13.28
2019-04-14T12:48:38.135Z,11.20
2019-04-14T12:51:15.060Z,14.80
2019-04-14T12:53:45.200Z,11.35
2019-04-14T12:56:19.256Z,13.75
2019-04-14T12:59:05.117Z,13.55
2019-04-14T13:01:54.560Z,13.98
2019-04-14T13:04:26.628Z,13.35
2019-04-14T13:06:56.784Z,13.58
2019-04-14T13:09:30.211Z,12.50
2019-04-14T13:12:02.488Z,11.75
2019-04-14T13:14:33.882Z,11.08
2019-04-14T13:17:04.153Z,9.30
2019-04-14T13:19:33.265Z,12.28
2019-04-14T13:22:02.394Z,13.28
2019-04-14T13:24:34.075Z,9.03
2019-04-14T13:27:06.653Z,8.68
2019-04-14T13:29:37.617Z,12.63
2019-04-14T13:32:07.709Z,13.13
2019-04-14T13:34:37.713Z,8.80
2019-04-14T13:37:06.820Z,11.75
2019-04-14T13:39:35.929Z,12.78
2019-04-14T13:42:06.393Z,11.78
2019-04-14T13:44:38.529Z,12.98
2019-04-14T13:47:15.254Z,10.40
2019-04-14T13:49:48.921Z,11.65
2019-04-14T13:52:22.220Z,13.03
2019-04-14T13:54:52.130Z,11.73
2019-04-14T13:57:21.257Z,11.68
2019-04-14T13:59:51.289Z,13.25
2019-04-14T14:02:20.664Z,12.90
2019-04-14T14:04:54.009Z,11.97
2019-04-14T14:07:25.367Z,10.15
2019-04-14T14:09:57.207Z,10.20
2019-04-14T14:12:29.830Z,9.20
2019-04-14T14:15:19.631Z,11.90
2019-04-14T14:18:03.479Z,10.48
2019-04-14T14:20:51.881Z,12.00
2019-04-14T14:23:28.146Z,10.48
2019-04-14T14:26:04.036Z,9.63
2019-04-14T14:28:38.694Z,10.72
2019-04-14T14:31:10.080Z,9.93
2019-04-14T14:33:40.803Z,8.35
2019-04-14T14:36:11.715Z,10.13
2019-04-14T14:38:41.282Z,9.70
2019-04-14T14:41:12.030Z,10.03
2019-04-14T14:43:43.345Z,8.80
2019-04-14T14:46:31.798Z,9.13
2019-04-14T14:49:09.974Z,8.85
2019-04-14T14:51:43.678Z,8.78
2019-04-14T14:54:14.431Z,8.28
2019-04-14T14:56:46.235Z,8.18
2019-04-14T14:59:15.906Z,8.45
2019-04-14T15:01:55.334Z,8.23
2019-04-14T15:04:28.416Z,5.72
2019-04-14T15:06:57.514Z,7.70
2019-04-14T15:09:27.821Z,7.60
2019-04-14T15:11:57.994Z,7.87
2019-04-14T15:14:28.736Z,7.42
2019-04-14T15:16:59.001Z,6.20
2019-04-14T15:19:28.138Z,7.60
2019-04-14T15:22:00.721Z,8.40
2019-04-14T15:24:31.478Z,8.73
2019-04-14T15:27:02.554Z,7.47
2019-04-14T15:29:34.957Z,6.95
2019-04-14T15:32:06.744Z,8.88
2019-04-14T15:34:36.315Z,8.90
2019-04-14T15:37:05.415Z,8.00
2019-04-14T15:39:37.417Z,7.85
2019-04-14T15:42:05.527Z,7.83
2019-04-14T15:44:35.806Z,6.83
2019-04-14T15:47:06.522Z,7.40
2019-04-14T15:49:36.983Z,7.30
2019-04-14T15:52:06.326Z,9.30
2019-04-14T15:54:39.276Z,9.43
2019-04-14T15:57:19.355Z,10.82
2019-04-14T16:00:08.610Z,8.13
2019-04-14T16:02:39.443Z,9.55
2019-04-14T16:05:15.946Z,10.08
2019-04-14T16:07:57.691Z,10.18
2019-04-14T16:10:45.192Z,11.57
2019-04-14T16:13:31.088Z,11.53
2019-04-14T16:16:17.633Z,10.40
2019-04-14T16:19:02.579Z,9.40
2019-04-14T16:21:33.429Z,11.25
2019-04-14T16:24:04.483Z,12.37
2019-04-14T16:26:35.325Z,11.80
2019-04-14T16:29:16.809Z,8.00
2019-04-14T16:31:57.835Z,11.60
2019-04-14T16:34:39.042Z,9.65
2019-04-14T16:37:11.254Z,10.30
2019-04-14T16:39:44.470Z,11.20
2019-04-14T16:42:14.550Z,11.22
2019-04-14T16:44:45.016Z,12.05
2019-04-14T16:47:14.261Z,11.60
2019-04-14T16:49:46.372Z,11.70
2019-04-14T16:52:18.750Z,12.15
2019-04-14T16:54:52.372Z,12.40
2019-04-14T16:57:41.918Z,11.90
2019-04-14T17:00:14.256Z,11.38
2019-04-14T17:02:45.241Z,12.25
2019-04-14T17:05:15.185Z,13.85
2019-04-14T17:07:44.311Z,11.73
2019-04-14T17:10:14.522Z,11.83
2019-04-14T17:12:45.122Z,11.35
2019-04-14T17:15:21.168Z,13.18
2019-04-14T17:18:09.346Z,13.72
2019-04-14T17:20:45.095Z,12.25
2019-04-14T17:23:20.269Z,13.25
2019-04-14T17:26:03.165Z,12.70
2019-04-14T17:28:37.838Z,13.95
2019-04-14T17:31:19.205Z,14.18
2019-04-14T17:33:55.982Z,13.85
2019-04-14T17:36:40.416Z,13.10
2019-04-14T17:39:15.870Z,12.78
2019-04-14T17:41:49.618Z,9.80
2019-04-14T17:44:27.458Z,13.40
2019-04-14T17:46:59.842Z,14.28
2019-04-14T17:49:45.474Z,14.93
2019-04-14T17:52:28.775Z,14.20
2019-04-14T17:55:13.269Z,13.43
2019-04-14T18:03:21.998Z,13.40
2019-04-14T18:06:08.558Z,12.18
2019-04-14T18:08:48.934Z,14.00
2019-04-14T18:11:36.965Z,14.90
2019-04-14T18:14:19.465Z,16.12
2019-04-14T18:16:56.197Z,14.43
2019-04-14T18:19:27.634Z,15.43
2019-04-14T18:21:57.010Z,16.40
2019-04-14T18:24:27.649Z,14.38
2019-04-14T18:26:58.386Z,15.50
2019-04-14T18:29:34.674Z,15.45
2019-04-14T18:32:11.719Z,15.38
2019-04-14T18:34:49.794Z,15.13
2019-04-14T18:37:30.777Z,14.33
2019-04-14T18:40:16.073Z,14.78
2019-04-14T18:42:56.078Z,15.43
2019-04-14T18:45:36.193Z,14.53
2019-04-14T18:48:20.606Z,11.40
2019-04-14T18:50:57.302Z,14.28
2019-04-14T18:53:42.669Z,12.93
2019-04-14T18:59:03.244Z,8.23
2019-04-14T19:01:36.555Z,11.88
2019-04-14T19:04:06.402Z,12.47
2019-04-14T19:06:37.122Z,11.85
2019-04-14T19:09:07.745Z,11.08
2019-04-14T19:11:58.041Z,11.10
2019-04-14T19:14:39.015Z,12.15
2019-04-14T19:17:09.826Z,11.22
2019-04-14T19:19:42.120Z,11.53
2019-04-14T19:22:12.900Z,9.00
2019-04-14T19:24:42.181Z,11.30
2019-04-14T19:27:11.732Z,10.30
2019-04-14T19:29:41.549Z,11.03
2019-04-14T19:32:12.477Z,10.25
2019-04-14T19:34:42.868Z,9.30
2019-04-14T19:37:16.589Z,10.60
2019-04-14T19:39:48.110Z,9.08
2019-04-14T19:42:19.042Z,9.65
2019-04-14T19:44:49.785Z,8.63
2019-04-14T19:47:26.215Z,8.30
2019-04-14T19:50:00.331Z,7.65
2019-04-14T19:52:30.169Z,8.55
2019-04-14T19:54:59.301Z,8.43
2019-04-14T19:57:31.238Z,8.93
2019-04-14T20:00:09.439Z,8.58
2019-04-14T20:02:41.859Z,9.00
2019-04-14T20:05:12.611Z,8.68
2019-04-14T20:07:45.949Z,9.05
2019-04-14T20:10:15.055Z,8.00
2019-04-14T20:12:45.557Z,8.05
2019-04-14T20:15:19.280Z,8.23
2019-04-14T20:17:56.568Z,8.03
2019-04-14T20:20:43.138Z,8.28
2019-04-14T20:23:17.178Z,8.30
2019-04-14T20:26:00.190Z,7.97
2019-04-14T20:28:41.233Z,7.15
2019-04-14T20:31:33.106Z,7.90
2019-04-14T20:34:02.489Z,6.47
2019-04-14T20:36:31.974Z,7.10
2019-04-14T20:39:02.442Z,7.95
2019-04-14T20:41:33.715Z,7.58
2019-04-14T20:44:02.819Z,6.85
2019-04-14T20:46:32.622Z,6.97
2019-04-14T20:49:03.246Z,6.97
2019-04-14T20:51:33.914Z,6.83
2019-04-14T20:54:04.311Z,7.08
2019-04-14T20:56:37.914Z,6.90
2019-04-14T20:59:07.578Z,7.08
2019-04-14T21:01:40.131Z,6.25
2019-04-14T21:04:27.230Z,6.22
2019-04-14T21:06:58.231Z,6.00
2019-04-14T21:09:46.975Z,6.37
2019-04-14T21:12:18.904Z,6.60
2019-04-14T21:15:08.268Z,6.53
2019-04-14T21:17:57.098Z,6.37
2019-04-14T21:20:28.535Z,6.40
2019-04-14T21:23:05.843Z,5.30
2019-04-14T21:25:40.533Z,4.92
2019-04-14T21:28:20.407Z,6.42
2019-04-14T21:31:00.159Z,7.35
2019-04-14T21:33:48.406Z,6.35
2019-04-14T21:36:25.357Z,6.12
2019-04-14T21:39:10.970Z,6.72
2019-04-14T21:41:44.990Z,6.53
2019-04-14T21:44:15.589Z,7.12
2019-04-14T21:46:46.321Z,6.83
2019-04-14T21:49:17.060Z,6.72
2019-04-14T21:51:49.194Z,6.62
2019-04-14T21:54:21.342Z,6.53
2019-04-14T21:56:53.736Z,6.75
2019-04-14T21:59:32.297Z,7.08
2019-04-14T22:02:19.229Z,7.17
2019-04-14T22:04:53.229Z,6.80
2019-04-14T22:07:23.978Z,6.33
2019-04-14T22:09:56.730Z,7.40
2019-04-14T22:12:26.022Z,8.00
2019-04-14T22:14:56.059Z,7.70
2019-04-14T22:17:25.171Z,7.20
2019-04-14T22:19:54.272Z,7.55
2019-04-14T22:22:23.363Z,7.80
2019-04-14T22:24:53.789Z,6.17
2019-04-14T22:27:24.601Z,6.92
2019-04-14T22:29:53.716Z,7.70
2019-04-14T22:32:22.812Z,7.47
2019-04-14T22:34:51.916Z,7.60
2019-04-14T22:37:21.989Z,7.33
2019-04-14T22:39:54.378Z,8.18
2019-04-14T22:42:25.055Z,7.85
2019-04-14T22:44:55.446Z,8.33
2019-04-14T22:47:24.569Z,8.48
2019-04-14T22:49:54.087Z,7.97
2019-04-14T22:52:26.074Z,7.75
2019-04-14T22:54:55.420Z,8.55
2019-04-14T22:57:25.331Z,8.65
2019-04-14T22:59:54.971Z,9.35
2019-04-14T23:02:26.434Z,8.48
2019-04-14T23:04:57.185Z,10.05
2019-04-14T23:07:30.950Z,10.88
2019-04-14T23:10:04.622Z,10.23
2019-04-14T23:12:41.385Z,11.05
2019-04-14T23:15:17.654Z,11.28
2019-04-14T23:17:57.704Z,11.93
2019-04-14T23:20:34.415Z,11.28
2019-04-14T23:23:10.857Z,9.75
2019-04-14T23:25:42.722Z,11.10
2019-04-14T23:28:11.814Z,12.50
2019-04-14T23:30:41.907Z,11.88
2019-04-14T23:33:11.018Z,12.13
2019-04-14T23:35:41.065Z,13.13
2019-04-14T23:38:10.220Z,12.98
2019-04-14T23:40:40.303Z,13.90
2019-04-14T23:43:11.037Z,12.58
2019-04-14T23:45:40.370Z,12.70
2019-04-14T23:48:09.468Z,11.65
2019-04-14T23:50:41.355Z,12.30
2019-04-14T23:53:10.441Z,12.93
2019-04-14T23:55:39.814Z,12.07
2019-04-14T23:58:11.850Z,12.30
